Flight Track Log - Related Links

Times and Time Zones

All times are in EDT time to prevent confusion due to time zone crossing. See the DAL2236 flight status page for this flight to view local times or setup timezone preferences in your user account.

Time Position Orientation Groundspeed Altitude Reporting Facility
EDT Latitude Longitude Course Direction KTS MPH feet Rate Location/Type
Mon 02:15:06 PM 33.6333 -84.4000 90° East 174 200 2,100  Level Atlanta TRACON
Mon 02:16:00 PM 33.6333 -84.3333 90° East 259 298 3,600 2,474 Climbing Atlanta TRACON
Mon 02:17:00 PM 33.6333 -84.2333 90° East 291 335 6,800 2,772 Climbing Atlanta TRACON
Mon 02:18:51 PM 33.6647 -84.0589 78° East 315 362 11,500 2,105 Climbing Atlanta Center
Mon 02:19:51 PM 33.7378 -83.9664 46° Northeast 351 404 12,800 1,750 Climbing Atlanta Center
Mon 02:20:51 PM 33.8150 -83.8664 47° Northeast 390 449 15,000 2,250 Climbing Atlanta Center
Mon 02:21:51 PM 33.8942 -83.7611 48° Northeast 422 486 17,300 1,950 Climbing Atlanta Center
Mon 02:22:51 PM 33.9628 -83.6606 51° Northeast 422 486 18,900 1,700 Climbing Atlanta Center
Mon 02:23:51 PM 34.0394 -83.5400 52° Northeast 438 504 20,700 1,750 Climbing Atlanta Center
Mon 02:24:51 PM 34.1161 -83.4167 53° Northeast 452 520 22,400 1,650 Climbing Atlanta Center
Mon 02:25:51 PM 34.1989 -83.2878 52° Northeast 466 536 24,000 1,500 Climbing Atlanta Center
Mon 02:26:51 PM 34.2753 -83.1589 54° Northeast 472 543 25,400 1,600 Climbing Atlanta Center
Mon 02:27:51 PM 34.3597 -83.0272 52° Northeast 483 556 27,200 1,750 Climbing Atlanta Center
Mon 02:28:51 PM 34.4442 -82.8978 52° Northeast 483 556 28,900 1,700 Climbing Atlanta Center
Mon 02:29:51 PM 34.5264 -82.7531 55° Northeast 483 556 30,600 1,050 Climbing Atlanta Center
Mon 02:30:51 PM 34.6106 -82.6228 52° Northeast 483 556 31,000 200 Climbing Atlanta Center
Mon 02:31:51 PM 34.6800 -82.5081 54° Northeast 483 556 31,000  Level Atlanta Center
Mon 02:32:51 PM 34.7700 -82.3622 53° Northeast 483 556 31,000  Level Atlanta Center
Mon 02:33:51 PM 34.8494 -82.2342 53° Northeast 483 556 31,000  Level Atlanta Center
Mon 02:34:51 PM 34.9311 -82.1031 53° Northeast 483 556 31,000  Level Atlanta Center
Mon 02:35:51 PM 35.0125 -81.9744 52° Northeast 483 556 31,000  Level Atlanta Center
Mon 02:36:51 PM 35.0936 -81.8431 53° Northeast 483 556 31,000  Level Atlanta Center
Mon 02:37:51 PM 35.1747 -81.7189 51° Northeast 477 549 31,000  Level Atlanta Center
Mon 02:38:51 PM 35.2497 -81.6022 52° Northeast 472 543 31,000  Level Atlanta Center
Mon 02:39:51 PM 35.3306 -81.4753 52° Northeast 472 543 31,000  Level Atlanta Center
Mon 02:40:51 PM 35.4111 -81.3428 53° Northeast 472 543 31,000  Level Atlanta Center
Mon 02:41:51 PM 35.4917 -81.2125 53° Northeast 472 543 31,000  Level Atlanta Center
Mon 02:42:51 PM 35.5842 -81.0664 52° Northeast 486 559 31,000  Level Atlanta Center
Mon 02:43:51 PM 35.6667 -80.9381 52° Northeast 479 551 31,000  Level Atlanta Center
Mon 02:44:51 PM 35.7467 -80.8097 52° Northeast 474 545 31,000  Level Atlanta Center
Mon 02:47:15 PM 35.9383 -80.5022 52° Northeast 483 556 31,000  Level Washington Center
Mon 02:48:15 PM 36.0167 -80.3711 54° Northeast 471 542 31,000  Level Washington Center
Mon 02:49:15 PM 36.0947 -80.2447 53° Northeast 466 536 31,000  Level Washington Center
Mon 02:50:15 PM 36.1728 -80.1156 53° Northeast 466 536 31,000  Level Washington Center
Mon 02:51:15 PM 36.2436 -80.0064 51° Northeast 459 528 31,000  Level Washington Center
Mon 02:52:15 PM 36.3236 -79.8767 53° Northeast 465 535 31,000  Level Washington Center
Mon 02:53:15 PM 36.4100 -79.7292 54° Northeast 470 541 31,000  Level Washington Center
Mon 02:54:15 PM 36.4897 -79.5992 53° Northeast 470 541 31,000  Level Washington Center
Mon 02:55:15 PM 36.5669 -79.4686 54° Northeast 470 541 31,000  Level Washington Center
Mon 02:56:15 PM 36.6442 -79.3378 54° Northeast 470 541 31,000  Level Washington Center
Mon 02:57:15 PM 36.7147 -79.2169 54° Northeast 470 541 31,000  Level Washington Center
Mon 02:58:15 PM 36.7958 -79.0858 52° Northeast 470 541 31,000  Level Washington Center
Mon 02:59:15 PM 36.8747 -78.9517 54° Northeast 470 541 31,000  Level Washington Center
Mon 03:00:15 PM 36.9600 -78.8019 54° Northeast 476 548 31,000  Level Washington Center
Mon 03:01:15 PM 37.0364 -78.6753 53° Northeast 471 542 31,000  Level Washington Center
Mon 03:02:15 PM 37.1128 -78.5400 55° Northeast 471 542 31,000  Level Washington Center
Mon 03:03:15 PM 37.1933 -78.4103 52° Northeast 471 542 31,000  Level Washington Center
Mon 03:04:15 PM 37.2628 -78.2928 53° Northeast 471 542 31,000  Level Washington Center
Mon 03:05:15 PM 37.3453 -78.1467 55° Northeast 471 542 31,000  Level Washington Center
Mon 03:06:15 PM 37.4208 -78.0158 54° Northeast 465 535 31,000  Level Washington Center
Mon 03:07:15 PM 37.4964 -77.8822 54° Northeast 465 535 31,000  Level Washington Center
Mon 03:08:15 PM 37.5883 -77.7697 44° Northeast 460 529 31,000  Level Washington Center
Mon 03:09:15 PM 37.6900 -77.6808 35° Northeast 443 510 31,000  Level Washington Center
Mon 03:10:15 PM 37.7939 -77.5889 35° Northeast 449 517 31,000 -400 Level Washington Center
Mon 03:11:15 PM 37.8975 -77.4944 36° Northeast 449 517 30,200 -900 Descending Washington Center
Mon 03:12:15 PM 37.9969 -77.4019 36° Northeast 449 517 29,200 -1,050 Descending Washington Center
Mon 03:13:15 PM 38.0878 -77.3172 36° Northeast 449 517 28,100 -1,000 Descending Washington Center
Mon 03:14:15 PM 38.1914 -77.2244 35° Northeast 454 522 27,200 -900 Descending Washington Center
Mon 03:15:15 PM 38.2992 -77.1208 37° Northeast 454 522 26,300 -900 Descending Washington Center
Mon 03:16:15 PM 38.3875 -77.0406 35° Northeast 449 517 25,400 -1,100 Descending Washington Center
Mon 03:17:15 PM 38.4867 -76.9469 36° Northeast 443 510 24,100 -700 Descending Washington Center
Mon 03:18:15 PM 38.5983 -76.8456 35° Northeast 443 510 24,000 -50 Descending Washington Center
Mon 03:19:15 PM 38.6931 -76.7433 40° Northeast 443 510 24,000  Level Washington Center
Mon 03:20:15 PM 38.7383 -76.5869 70° East 431 496 24,000 -1,150 Level Washington Center
Mon 03:21:15 PM 38.7728 -76.4278 74° East 439 505 21,700 -2,600 Descending Washington Center
Mon 03:22:15 PM 38.8031 -76.2708 76° East 445 512 18,800 -2,550 Descending Washington Center
Mon 03:23:15 PM 38.8372 -76.1219 74° East 445 512 16,600 -1,950 Descending Washington Center
Mon 03:24:15 PM 38.8647 -75.9783 76° East 425 489 14,900 -1,321 Descending Washington Center
Mon 03:26:03 PM 38.9503 -75.7794 61° Northeast 358 412 12,900 -1,031 Descending FAA TRACON SMA TRACON (SMA)
Mon 03:26:23 PM 38.9778 -75.7558 34° Northeast 362 417 12,700 -600 Descending FAA TRACON SMA TRACON (SMA)
Mon 03:26:43 PM 39.0028 -75.7314 37° Northeast 365 420 12,500 -750 Descending FAA TRACON SMA TRACON (SMA)
Mon 03:27:03 PM 39.0331 -75.7025 37° Northeast 364 419 12,200 -900 Descending FAA TRACON SMA TRACON (SMA)
Mon 03:27:23 PM 39.0617 -75.6819 29° Northeast 368 423 11,900 -900 Descending FAA TRACON SMA TRACON (SMA)
Mon 03:27:43 PM 39.0906 -75.6733 13° North 358 412 11,600 -900 Descending FAA TRACON SMA TRACON (SMA)
Mon 03:28:03 PM 39.1264 -75.6694 North 354 407 11,300 -750 Descending FAA TRACON SMA TRACON (SMA)
Mon 03:28:23 PM 39.1597 -75.6681 North 357 411 11,100 -732 Descending FAA TRACON SMA TRACON (SMA)
Mon 03:28:44 PM 39.1969 -75.6636 North 357 411 10,800 -878 Descending FAA TRACON SMA TRACON (SMA)
Mon 03:29:04 PM 39.2286 -75.6603 North 358 412 10,500 -750 Descending FAA TRACON SMA TRACON (SMA)
Mon 03:29:24 PM 39.2572 -75.6561 North 351 404 10,300 -600 Descending FAA TRACON SMA TRACON (SMA)
Mon 03:29:44 PM 39.2922 -75.6539 North 316 364 10,100 -600 Descending FAA TRACON SMA TRACON (SMA)
Mon 03:30:04 PM 39.3183 -75.6550 358° North 299 344 9,900 -1,050 Descending FAA TRACON SMA TRACON (SMA)
Mon 03:30:24 PM 39.3425 -75.6553 359° North 287 330 9,400 -1,650 Descending FAA TRACON SMA TRACON (SMA)
Mon 03:30:44 PM 39.3753 -75.6567 358° North 297 342 8,800 -1,650 Descending FAA TRACON SMA TRACON (SMA)
Mon 03:31:04 PM 39.3989 -75.6575 358° North 293 337 8,300 -1,650 Descending FAA TRACON SMA TRACON (SMA)
Mon 03:31:24 PM 39.4247 -75.6581 359° North 291 335 7,700 -1,800 Descending FAA TRACON SMA TRACON (SMA)
Mon 03:31:44 PM 39.4553 -75.6589 359° North 287 330 7,100 -1,800 Descending FAA TRACON SMA TRACON (SMA)
Mon 03:32:04 PM 39.4800 -75.6589 360° North 288 331 6,500 -1,500 Descending FAA TRACON SMA TRACON (SMA)
Mon 03:32:24 PM 39.5047 -75.6586 360° North 288 331 6,100 -600 Descending FAA TRACON SMA TRACON (SMA)
Mon 03:32:44 PM 39.5367 -75.6547 North 283 326 6,100  Level FAA TRACON SMA TRACON (SMA)
Mon 03:33:04 PM 39.5600 -75.6481 12° North 288 331 6,100  Level FAA TRACON SMA TRACON (SMA)
Mon 03:33:24 PM 39.5842 -75.6431 North 287 330 6,100 -150 Level FAA TRACON SMA TRACON (SMA)
Mon 03:33:44 PM 39.6131 -75.6375 North 285 328 6,000 -150 Descending FAA TRACON SMA TRACON (SMA)
Mon 03:34:04 PM 39.6383 -75.6322 North 285 328 6,000 -450 Level FAA TRACON SMA TRACON (SMA)
Mon 03:34:24 PM 39.6631 -75.6278 North 284 327 5,700 -1,200 Descending FAA TRACON SMA TRACON (SMA)
Mon 03:34:44 PM 39.6864 -75.6236 North 283 326 5,200 -1,650 Descending FAA TRACON SMA TRACON (SMA)
Mon 03:35:04 PM 39.7167 -75.6172 North 280 322 4,600 -1,650 Descending FAA TRACON SMA TRACON (SMA)
Mon 03:35:24 PM 39.7375 -75.6047 25° Northeast 268 308 4,100 -750 Descending FAA TRACON SMA TRACON (SMA)
Mon 03:35:44 PM 39.7539 -75.5800 49° Northeast 224 258 4,100 -150 Level FAA TRACON SMA TRACON (SMA)
Mon 03:36:04 PM 39.7622 -75.5578 64° Northeast 209 241 4,000 -150 Descending FAA TRACON SMA TRACON (SMA)
Mon 03:36:24 PM 39.7708 -75.5392 59° Northeast 193 222 4,000  Level FAA TRACON SMA TRACON (SMA)
Mon 03:36:44 PM 39.7772 -75.5233 62° Northeast 181 208 4,000 150 Level FAA TRACON SMA TRACON (SMA)
Mon 03:37:04 PM 39.7886 -75.5000 58° Northeast 182 209 4,100 -150 Climbing FAA TRACON SMA TRACON (SMA)
Mon 03:37:24 PM 39.7961 -75.4819 62° Northeast 183 211 3,900 -750 Descending FAA TRACON SMA TRACON (SMA)
Mon 03:37:44 PM 39.8042 -75.4647 59° Northeast 182 209 3,600 -900 Descending FAA TRACON SMA TRACON (SMA)
Mon 03:38:04 PM 39.8136 -75.4419 62° Northeast 181 208 3,300 -900 Descending FAA TRACON SMA TRACON (SMA)
Mon 03:38:24 PM 39.8217 -75.4256 57° Northeast 180 207 3,000 -1,050 Descending FAA TRACON SMA TRACON (SMA)
Mon 03:38:44 PM 39.8289 -75.4086 61° Northeast 179 206 2,600 -1,350 Descending FAA TRACON SMA TRACON (SMA)
Mon 03:39:04 PM 39.8375 -75.3878 62° Northeast 166 191 2,100 -1,200 Descending FAA TRACON SMA TRACON (SMA)
Mon 03:39:24 PM 39.8419 -75.3725 69° East 159 183 1,800 -900 Descending FAA TRACON SMA TRACON (SMA)
Mon 03:39:44 PM 39.8444 -75.3564 79° East 152 175 1,500 -900 Descending FAA TRACON SMA TRACON (SMA)
Mon 03:40:04 PM 39.8492 -75.3339 75° East 154 177 1,200 -900 Descending FAA TRACON SMA TRACON (SMA)
Mon 03:40:24 PM 39.8522 -75.3183 76° East 150 173 900 -900 Descending FAA TRACON SMA TRACON (SMA)
Mon 03:40:44 PM 39.8553 -75.3036 75° East 150 173 600 -1,050 Descending FAA TRACON SMA TRACON (SMA)
Mon 03:41:04 PM 39.8597 -75.2806 76° East 152 175 200 -1,200 Descending FAA TRACON SMA TRACON (SMA)
Mon 03:43:00 PM 39.8667 -75.2333 37° Northeast  Level FlightAware Approximate

Login

Don't have an account? Register now (free) for customized features, flight alerts, and more!